Terminal Aerodrome Forecast
Issued by NWS Lake Charles, LA

Home | Current Version | Previous Version | Text Only | Print | Product List | Glossary On
Versions: 1 2 3 4 5 6 7 8 9 10 11 12
000
FTUS44 KLCH 290520
TAFARA
TAF
KARA 290520Z 2906/3006 16004KT P6SM SKC
      TEMPO 2910/2914 4SM BR
     FM291400 18008KT P6SM SKC
     FM291700 19012G18KT P6SM SKC
     FM300000 18006KT P6SM SKC=

USA.gov is the U.S. government's official web portal to all federal, state and local government web resources and services.